Time;durP1;ratioP1;P1;durP2;ratioP2;P2;SDS_P1;SDS_P2;PMS_P1;PMS_P2;Temp;Humidity;BMP_temperature;BMP_pressure;BME280_temperature;BME280_humidity;BME280_pressure;Samples;Min_cycle;Max_cycle;Signal;HPM_P1;HPM_P2
2022/11/22 00:00:06;;;;;;;13.95;6.85;;;6.90;99.90;;;;;;4995666;28;20026;-73
2022/11/22 00:02:36;;;;;;;10.68;5.97;;;6.90;99.90;;;;;;5013944;28;20033;-73
2022/11/22 00:05:02;;;;;;;14.95;6.68;;;6.90;99.90;;;;;;5031395;28;20026;-73
2022/11/22 00:07:28;;;;;;;16.80;6.60;;;6.90;99.90;;;;;;5030615;28;20132;-73
2022/11/22 00:09:53;;;;;;;20.25;6.85;;;6.90;99.90;;;;;;5030836;28;20100;-73
2022/11/22 00:12:19;;;;;;;14.40;5.80;;;6.90;99.90;;;;;;5031899;28;20029;-73
2022/11/22 00:14:45;;;;;;;15.77;6.22;;;6.90;99.90;;;;;;5031883;28;20391;-73
2022/11/22 00:17:11;;;;;;;18.63;5.68;;;6.90;99.90;;;;;;5025769;28;20391;-73
2022/11/22 00:19:40;;;;;;;16.52;5.53;;;6.90;99.90;;;;;;5031548;28;20061;-73
2022/11/22 00:22:06;;;;;;;10.48;5.40;;;6.90;99.90;;;;;;5032316;28;20018;-73
2022/11/22 00:24:35;;;;;;;18.83;6.07;;;7.00;99.90;;;;;;5012621;28;20028;-74
2022/11/22 00:27:01;;;;;;;13.23;5.47;;;6.90;99.90;;;;;;5031996;28;20037;-73
2022/11/22 00:29:27;;;;;;;13.73;5.50;;;7.00;99.90;;;;;;5031642;28;20403;-72
2022/11/22 00:31:52;;;;;;;12.82;4.75;;;7.00;99.90;;;;;;5028615;28;20128;-73
2022/11/22 00:34:18;;;;;;;13.45;5.57;;;7.00;99.90;;;;;;5034057;28;20426;-74
2022/11/22 00:36:44;;;;;;;13.10;5.18;;;7.00;99.90;;;;;;5030952;28;20034;-73
2022/11/22 00:39:10;;;;;;;14.20;5.40;;;7.00;99.90;;;;;;5031311;28;20037;-73
2022/11/22 00:41:36;;;;;;;14.57;4.95;;;7.00;99.90;;;;;;5013586;28;20036;-74
2022/11/22 00:44:02;;;;;;;13.85;5.10;;;7.00;99.90;;;;;;5033758;28;20119;-73
2022/11/22 00:46:28;;;;;;;16.60;5.72;;;7.00;99.90;;;;;;5031521;28;20037;-72
2022/11/22 00:48:53;;;;;;;12.15;5.82;;;7.00;99.90;;;;;;4997726;28;20475;-74
2022/11/22 00:51:19;;;;;;;11.98;4.68;;;7.00;99.90;;;;;;5013896;28;20030;-72
2022/11/22 00:53:44;;;;;;;13.25;5.05;;;7.00;99.90;;;;;;5028957;28;20099;-74
2022/11/22 00:56:10;;;;;;;12.95;4.88;;;7.00;99.90;;;;;;5030386;28;20044;-73
2022/11/22 00:58:36;;;;;;;10.45;4.75;;;7.00;99.90;;;;;;5013096;28;20036;-73
2022/11/22 01:01:02;;;;;;;17.88;5.10;;;6.90;99.90;;;;;;5031391;28;20037;-73
2022/11/22 01:03:27;;;;;;;14.23;4.90;;;6.90;99.90;;;;;;5030258;28;20025;-73
2022/11/22 01:05:56;;;;;;;17.45;5.32;;;6.90;99.90;;;;;;5032259;28;20432;-73
2022/11/22 01:08:22;;;;;;;14.75;5.30;;;6.90;99.90;;;;;;5031216;28;20483;-73
2022/11/22 01:10:57;;;;;;;11.23;5.65;;;6.90;99.90;;;;;;5026901;28;20067;-73
2022/11/22 01:13:23;;;;;;;12.15;5.15;;;6.90;99.90;;;;;;5029968;28;20422;-73
2022/11/22 01:15:49;;;;;;;10.48;4.28;;;6.90;99.90;;;;;;5013271;28;20486;-73
2022/11/22 01:18:15;;;;;;;15.27;5.50;;;6.90;99.90;;;;;;5029305;28;20108;-72
2022/11/22 01:20:44;;;;;;;16.20;6.18;;;6.90;99.90;;;;;;5012840;28;20040;-72
2022/11/22 01:23:10;;;;;;;17.05;5.00;;;6.90;99.90;;;;;;5030101;28;20515;-72
2022/11/22 01:25:45;;;;;;;16.20;5.40;;;6.80;99.90;;;;;;5016338;28;20037;-73
2022/11/22 01:28:11;;;;;;;17.08;5.60;;;6.80;99.90;;;;;;5051362;28;20031;-73
2022/11/22 01:30:40;;;;;;;13.93;5.68;;;6.70;99.90;;;;;;5030057;28;20025;-71
2022/11/22 01:33:06;;;;;;;11.48;5.22;;;6.70;99.90;;;;;;5004599;28;20049;-73
2022/11/22 01:35:35;;;;;;;11.68;5.28;;;6.60;99.90;;;;;;5030976;28;20035;-72
2022/11/22 01:38:01;;;;;;;14.00;4.85;;;6.60;99.90;;;;;;5012284;28;20022;-73
2022/11/22 01:40:26;;;;;;;11.30;4.82;;;6.50;99.90;;;;;;5031415;28;20022;-72
2022/11/22 01:42:54;;;;;;;14.80;4.90;;;6.50;99.90;;;;;;5010187;28;20387;-73
2022/11/22 01:45:28;;;;;;;11.02;4.78;;;6.40;99.90;;;;;;5012566;28;20064;-73
2022/11/22 01:48:11;;;;;;;13.40;5.15;;;6.40;99.90;;;;;;5012577;28;20029;-74
2022/11/22 01:50:38;;;;;;;;;;;6.40;99.90;;;;;;5018062;28;20026;-73
2022/11/22 01:53:08;;;;;;;12.23;4.07;;;6.40;99.90;;;;;;5034139;28;19947;-73
2022/11/22 01:55:41;;;;;;;14.90;5.10;;;6.30;99.90;;;;;;5017283;28;20037;-72
2022/11/22 01:58:09;;;;;;;14.45;5.32;;;6.40;99.90;;;;;;5034277;28;20021;-72
2022/11/22 02:00:37;;;;;;;12.50;5.13;;;6.40;99.90;;;;;;5035374;28;20029;-72
2022/11/22 02:03:04;;;;;;;13.40;4.43;;;6.40;99.90;;;;;;5033285;28;20356;-74
2022/11/22 02:05:33;;;;;;;10.48;4.03;;;6.40;99.90;;;;;;5037201;28;20031;-73
2022/11/22 02:08:14;;;;;;;13.52;4.13;;;6.50;99.90;;;;;;5033685;28;20575;-72
2022/11/22 02:10:46;;;;;;;14.15;3.92;;;6.50;99.90;;;;;;5034866;28;20030;-74
2022/11/22 02:13:14;;;;;;;11.95;3.03;;;6.60;99.90;;;;;;5052029;28;20029;-73
2022/11/22 02:15:41;;;;;;;12.80;3.30;;;6.60;99.90;;;;;;5035882;28;20060;-73
2022/11/22 02:18:08;;;;;;;11.20;3.30;;;6.70;99.90;;;;;;5040929;28;20025;-73
2022/11/22 02:20:37;;;;;;;15.32;3.05;;;6.70;99.90;;;;;;5034225;28;20031;-72
2022/11/22 02:23:31;;;;;;;15.10;3.90;;;6.70;99.90;;;;;;5003064;28;20365;-72
2022/11/22 02:25:59;;;;;;;14.32;3.00;;;6.70;99.90;;;;;;5034489;28;20044;-73
2022/11/22 02:28:27;;;;;;;22.08;4.68;;;6.60;99.90;;;;;;5033631;28;20029;-73
2022/11/22 02:30:53;;;;;;;14.52;4.03;;;6.60;99.90;;;;;;5015068;28;20056;-74
2022/11/22 02:33:18;;;;;;;9.55;2.78;;;6.60;99.90;;;;;;5031263;28;20333;-73
2022/11/22 02:35:44;;;;;;;10.60;2.67;;;6.60;99.90;;;;;;5034257;28;20057;-72
2022/11/22 02:38:21;;;;;;;8.95;2.30;;;6.60;99.90;;;;;;5032065;28;20036;-74
2022/11/22 02:40:52;;;;;;;15.63;3.13;;;6.60;99.90;;;;;;4996676;28;20117;-73
2022/11/22 02:43:22;;;;;;;13.57;2.77;;;6.50;99.90;;;;;;5032356;28;20368;-73
2022/11/22 02:45:47;;;;;;;12.50;2.38;;;6.50;99.90;;;;;;5034194;28;20389;-73
2022/11/22 02:48:16;;;;;;;11.38;2.10;;;6.50;99.90;;;;;;5032886;28;20037;-73
2022/11/22 02:50:42;;;;;;;16.05;1.92;;;6.40;99.90;;;;;;5014756;28;20121;-73
2022/11/22 02:53:10;;;;;;;13.20;1.73;;;6.40;99.90;;;;;;5032890;28;20084;-73
2022/11/22 02:55:35;;;;;;;12.05;2.22;;;6.40;99.90;;;;;;5032160;28;20032;-72
2022/11/22 02:58:01;;;;;;;13.68;2.17;;;6.40;99.90;;;;;;5033127;28;20033;-73
2022/11/22 03:00:27;;;;;;;17.98;2.00;;;6.40;99.90;;;;;;5032935;28;20060;-73
2022/11/22 03:02:53;;;;;;;13.35;1.85;;;6.40;99.90;;;;;;5032534;28;20061;-73
2022/11/22 03:05:19;;;;;;;13.15;1.88;;;6.40;99.90;;;;;;5031231;28;20534;-74
2022/11/22 03:07:45;;;;;;;16.05;1.77;;;6.40;99.90;;;;;;5030991;28;20044;-73
2022/11/22 03:10:10;;;;;;;9.57;1.50;;;6.40;99.90;;;;;;5009966;28;20108;-72
2022/11/22 03:12:36;;;;;;;13.40;1.40;;;6.40;99.90;;;;;;5028972;28;20032;-74
2022/11/22 03:15:02;;;;;;;10.07;1.20;;;6.40;99.90;;;;;;5013467;28;20040;-73
2022/11/22 03:17:31;;;;;;;15.27;1.90;;;6.30;99.90;;;;;;5013906;28;20432;-73
2022/11/22 03:19:57;;;;;;;13.10;1.77;;;6.30;99.90;;;;;;5016151;28;20021;-73
2022/11/22 03:22:22;;;;;;;13.93;2.47;;;6.30;99.90;;;;;;5032518;28;20449;-73
2022/11/22 03:24:48;;;;;;;10.60;0.93;;;6.30;99.90;;;;;;5038716;28;20036;-73
2022/11/22 03:27:13;;;;;;;17.13;1.45;;;6.30;99.90;;;;;;5033782;28;20033;-73
2022/11/22 03:29:39;;;;;;;12.77;1.30;;;6.20;99.90;;;;;;5021454;28;20124;-73
2022/11/22 03:32:05;;;;;;;11.77;1.27;;;6.20;99.90;;;;;;5019102;28;20419;-74
2022/11/22 03:34:31;;;;;;;17.52;1.58;;;6.20;99.90;;;;;;5031397;28;20041;-73
2022/11/22 03:36:59;;;;;;;9.20;1.27;;;6.10;99.90;;;;;;5032224;28;20100;-73
2022/11/22 03:39:25;;;;;;;16.02;1.30;;;6.10;99.90;;;;;;5032140;28;20033;-73
2022/11/22 03:41:50;;;;;;;9.77;1.20;;;6.10;99.90;;;;;;5037346;28;20029;-72
2022/11/22 03:44:16;;;;;;;15.35;1.58;;;6.10;99.90;;;;;;5040039;28;20030;-73
2022/11/22 03:46:42;;;;;;;9.77;1.10;;;6.10;99.90;;;;;;5013451;28;20072;-73
2022/11/22 03:49:09;;;;;;;7.30;1.10;;;6.00;99.90;;;;;;5036255;28;20032;-74
2022/11/22 03:51:34;;;;;;;13.57;1.20;;;6.00;99.90;;;;;;5033270;28;20059;-73
2022/11/22 03:54:00;;;;;;;12.82;1.00;;;6.00;99.90;;;;;;5014714;28;20061;-72
2022/11/22 03:56:26;;;;;;;12.93;0.98;;;5.90;99.90;;;;;;5026764;28;20041;-72
2022/11/22 03:58:52;;;;;;;14.73;1.40;;;6.00;99.90;;;;;;5037522;28;20474;-72
2022/11/22 04:01:18;;;;;;;11.80;1.35;;;5.90;99.90;;;;;;5040805;28;20055;-72
2022/11/22 04:03:44;;;;;;;12.30;1.20;;;5.90;99.90;;;;;;5028360;28;20032;-72
2022/11/22 04:06:10;;;;;;;12.98;0.93;;;5.90;99.90;;;;;;5031619;28;20042;-73
2022/11/22 04:08:36;;;;;;;12.98;1.80;;;5.80;99.90;;;;;;5033202;28;20538;-73
2022/11/22 04:11:02;;;;;;;10.48;0.82;;;5.80;99.90;;;;;;5033461;28;20495;-73
2022/11/22 04:16:12;;;;;;;16.60;1.92;;;5.70;99.90;;;;;;5029816;28;20139;-73
2022/11/22 04:18:38;;;;;;;11.70;1.27;;;5.60;99.90;;;;;;5032785;28;20036;-72
2022/11/22 04:25:12;;;;;;;9.07;0.70;;;5.60;99.90;;;;;;5032874;28;20036;-73
2022/11/22 04:26:34;;;;;;;11.82;1.58;;;5.60;99.90;;;;;;5031867;28;20045;-72
2022/11/22 04:28:59;;;;;;;14.98;1.92;;;5.50;99.90;;;;;;5032807;28;20034;-72
2022/11/22 04:34:09;;;;;;;14.93;1.48;;;5.50;99.90;;;;;;5030767;28;20064;-72
2022/11/22 04:36:35;;;;;;;8.60;1.40;;;5.40;99.90;;;;;;5031400;28;20053;-73
2022/11/22 04:39:00;;;;;;;10.23;0.75;;;5.40;99.90;;;;;;5032437;28;20096;-73
2022/11/22 04:41:26;;;;;;;14.57;0.88;;;5.30;99.90;;;;;;5031483;28;20116;-73
2022/11/22 04:46:35;;;;;;;15.70;1.13;;;5.30;99.90;;;;;;5018500;28;20045;-72
2022/11/22 04:49:01;;;;;;;13.02;0.80;;;5.20;99.90;;;;;;5024104;28;20038;-72
2022/11/22 04:54:10;;;;;;;13.80;0.90;;;5.10;99.90;;;;;;5027169;28;20450;-73
2022/11/22 04:56:36;;;;;;;11.75;0.95;;;5.10;99.90;;;;;;5032470;28;20025;-73
2022/11/22 04:59:02;;;;;;;15.68;1.92;;;5.10;99.90;;;;;;5030490;28;20491;-72
2022/11/22 05:01:27;;;;;;;11.82;1.05;;;5.10;99.90;;;;;;5031436;28;20037;-73
2022/11/22 05:03:53;;;;;;;11.25;0.70;;;5.00;99.90;;;;;;5030637;28;20025;-72
2022/11/22 05:06:18;;;;;;;12.50;1.00;;;5.00;99.90;;;;;;5013365;28;20029;-72
2022/11/22 05:08:44;;;;;;;15.32;1.45;;;5.00;99.90;;;;;;5031266;28;20030;-73
2022/11/22 05:11:09;;;;;;;10.48;0.93;;;5.00;99.90;;;;;;5030040;28;20021;-72
2022/11/22 05:13:38;;;;;;;14.93;2.15;;;5.00;99.90;;;;;;5012910;28;20044;-73
2022/11/22 05:16:06;;;;;;;11.70;1.08;;;5.00;99.90;;;;;;5028551;28;20028;-73
2022/11/22 05:18:32;;;;;;;6.10;0.80;;;4.90;99.90;;;;;;5031483;28;20026;-73
2022/11/22 05:20:59;;;;;;;9.57;1.38;;;4.90;99.90;;;;;;5013605;28;20018;-73
2022/11/22 05:26:10;;;;;;;14.60;1.25;;;4.80;99.90;;;;;;5030946;28;20091;-73
2022/11/22 05:28:39;;;;;;;17.17;1.55;;;4.90;99.90;;;;;;5013962;28;20376;-73
2022/11/22 05:31:16;;;;;;;10.93;1.10;;;4.80;99.90;;;;;;5029579;28;20026;-72
2022/11/22 05:33:44;;;;;;;15.52;1.35;;;4.80;99.90;;;;;;5018585;28;20043;-73
2022/11/22 05:36:11;;;;;;;14.30;1.23;;;4.70;99.90;;;;;;5033177;28;20030;-74
2022/11/22 05:38:38;;;;;;;12.43;0.95;;;4.70;99.90;;;;;;5030065;28;20023;-72
2022/11/22 05:41:06;;;;;;;13.68;1.35;;;4.70;99.90;;;;;;5031013;28;20030;-73
2022/11/22 05:43:32;;;;;;;16.33;1.05;;;4.70;99.90;;;;;;5012193;28;20030;-73
2022/11/22 05:46:18;;;;;;;11.63;1.08;;;4.70;99.90;;;;;;5027431;28;20096;-72
2022/11/22 05:48:46;;;;;;;15.25;1.00;;;4.60;99.90;;;;;;5018824;28;20096;-73
2022/11/22 05:51:14;;;;;;;10.38;0.70;;;4.60;99.90;;;;;;5028590;28;20021;-73
2022/11/22 05:53:41;;;;;;;14.65;1.35;;;4.60;99.90;;;;;;5027151;28;20080;-73
2022/11/22 05:56:09;;;;;;;9.35;1.08;;;4.60;99.90;;;;;;5027130;28;20432;-73
2022/11/22 05:58:35;;;;;;;13.55;0.90;;;4.60;99.90;;;;;;5022861;28;20395;-72
2022/11/22 06:01:03;;;;;;;11.60;0.82;;;4.60;99.90;;;;;;5026182;28;20026;-72
2022/11/22 06:03:29;;;;;;;7.75;0.85;;;4.50;99.90;;;;;;5028902;28;20112;-73
2022/11/22 06:05:54;;;;;;;7.45;1.13;;;4.50;99.90;;;;;;5028737;28;20120;-72
2022/11/22 06:08:20;;;;;;;10.27;0.95;;;4.50;99.90;;;;;;5029935;28;20071;-73
2022/11/22 06:10:46;;;;;;;9.13;0.73;;;4.50;99.90;;;;;;5010194;28;20116;-73
2022/11/22 06:13:15;;;;;;;12.15;2.03;;;4.40;99.90;;;;;;5028848;28;20124;-73
2022/11/22 06:15:40;;;;;;;8.93;0.80;;;4.50;99.90;;;;;;5009014;28;20910;-73
2022/11/22 06:18:06;;;;;;;14.77;0.80;;;4.40;99.90;;;;;;5004146;28;20049;-72
2022/11/22 06:20:32;;;;;;;11.75;0.80;;;4.40;99.90;;;;;;5008931;28;20384;-73
2022/11/22 06:22:58;;;;;;;8.23;0.88;;;4.40;99.90;;;;;;5030230;28;20033;-73
2022/11/22 06:25:24;;;;;;;10.05;0.85;;;4.40;99.90;;;;;;5034746;28;20055;-73
2022/11/22 06:27:50;;;;;;;12.70;0.93;;;4.40;99.90;;;;;;5012252;28;20403;-73
2022/11/22 06:30:15;;;;;;;6.95;0.90;;;4.40;99.90;;;;;;5026822;28;20018;-72
2022/11/22 06:32:41;;;;;;;12.18;1.58;;;4.30;99.90;;;;;;5012593;28;20049;-71
2022/11/22 06:35:08;;;;;;;14.13;1.67;;;4.30;99.90;;;;;;5009620;28;20044;-73
2022/11/22 06:37:34;;;;;;;8.10;0.55;;;4.30;99.90;;;;;;5033236;28;20399;-73
2022/11/22 06:40:06;;;;;;;15.50;1.05;;;4.30;99.90;;;;;;5033101;28;20037;-75
2022/11/22 06:42:31;;;;;;;11.33;1.10;;;4.30;99.90;;;;;;5025395;28;20032;-73
2022/11/22 06:44:57;;;;;;;12.52;0.88;;;4.30;99.90;;;;;;5027415;28;20017;-75
2022/11/22 06:47:23;;;;;;;10.00;1.00;;;4.30;99.90;;;;;;5024887;28;20504;-73
2022/11/22 06:49:48;;;;;;;13.77;0.80;;;4.40;99.90;;;;;;5015257;28;20032;-73
2022/11/22 06:52:14;;;;;;;8.52;0.77;;;4.30;99.90;;;;;;5006406;28;20442;-73
2022/11/22 06:54:40;;;;;;;12.15;1.00;;;4.30;99.90;;;;;;5019041;28;20030;-73
2022/11/22 06:57:05;;;;;;;12.00;1.27;;;4.30;99.90;;;;;;5018179;28;20021;-73
2022/11/22 06:59:31;;;;;;;7.20;0.80;;;4.30;99.90;;;;;;5016699;28;20436;-74
2022/11/22 07:01:56;;;;;;;9.88;0.82;;;4.20;99.90;;;;;;5018065;28;20044;-73
2022/11/22 07:04:22;;;;;;;8.50;0.80;;;4.20;99.90;;;;;;5018216;28;20029;-73
2022/11/22 07:06:47;;;;;;;10.48;1.00;;;4.20;99.90;;;;;;5025391;28;20041;-72
2022/11/22 07:09:13;;;;;;;9.60;0.80;;;4.20;99.90;;;;;;5020323;28;20087;-73
2022/11/22 07:11:39;;;;;;;11.25;0.90;;;4.20;99.90;;;;;;5020076;28;20076;-73
2022/11/22 07:14:05;;;;;;;8.75;0.90;;;4.30;99.90;;;;;;5019263;28;20081;-74
2022/11/22 07:16:30;;;;;;;9.90;0.73;;;4.40;99.90;;;;;;5010013;28;20038;-74
2022/11/22 07:18:59;;;;;;;13.65;0.90;;;4.50;99.90;;;;;;5004839;28;20033;-73
2022/11/22 07:21:25;;;;;;;12.63;1.17;;;4.60;99.90;;;;;;5014641;28;20489;-73
2022/11/22 07:23:52;;;;;;;8.60;0.75;;;4.70;99.90;;;;;;5020404;28;20025;-73
2022/11/22 07:26:20;;;;;;;9.85;1.10;;;4.80;99.90;;;;;;5023138;28;20030;-71
2022/11/22 07:28:46;;;;;;;11.52;0.77;;;4.80;99.90;;;;;;5026532;28;20387;-73
2022/11/22 07:31:13;;;;;;;7.80;0.93;;;4.90;99.90;;;;;;5025895;28;20025;-74
2022/11/22 07:33:39;;;;;;;12.75;1.27;;;4.90;99.90;;;;;;5023344;28;20487;-73
2022/11/22 07:36:09;;;;;;;7.88;0.70;;;5.00;99.90;;;;;;5021680;28;20084;-73
2022/11/22 07:38:34;;;;;;;10.43;1.08;;;5.10;99.90;;;;;;5009625;28;20026;-72
2022/11/22 07:41:00;;;;;;;9.15;0.85;;;5.10;99.90;;;;;;5024459;28;20052;-72
2022/11/22 07:43:26;;;;;;;12.95;1.00;;;5.20;99.90;;;;;;5008963;28;20030;-74
2022/11/22 07:45:52;;;;;;;6.53;0.80;;;5.20;99.90;;;;;;5021403;28;20069;-74
2022/11/22 07:48:18;;;;;;;9.00;0.93;;;5.30;99.90;;;;;;5007813;28;20038;-74
2022/11/22 07:50:43;;;;;;;14.93;1.42;;;5.30;99.90;;;;;;5013486;28;20153;-73
2022/11/22 07:53:12;;;;;;;12.23;0.98;;;5.30;99.90;;;;;;5026155;28;20039;-74
2022/11/22 07:55:38;;;;;;;12.93;1.20;;;5.40;99.90;;;;;;5028169;28;20026;-76
2022/11/22 07:58:04;;;;;;;13.85;1.15;;;5.40;99.90;;;;;;5013149;28;20025;-75
2022/11/22 08:00:29;;;;;;;14.93;1.50;;;5.40;99.90;;;;;;5015571;28;20037;-74
2022/11/22 08:02:57;;;;;;;13.48;1.42;;;5.40;99.90;;;;;;5024904;28;20025;-76
2022/11/22 08:05:23;;;;;;;10.07;2.00;;;5.40;99.90;;;;;;5038848;28;20083;-75
2022/11/22 08:07:50;;;;;;;12.82;1.23;;;5.40;99.90;;;;;;5032777;28;20108;-74
2022/11/22 08:10:16;;;;;;;10.88;1.20;;;5.50;99.90;;;;;;5026009;28;20391;-73
2022/11/22 08:12:42;;;;;;;16.40;1.90;;;5.50;99.90;;;;;;5030745;28;20116;-74
2022/11/22 08:15:10;;;;;;;13.00;1.08;;;5.50;99.90;;;;;;5009289;28;20028;-75
2022/11/22 08:17:38;;;;;;;10.05;0.90;;;5.60;99.90;;;;;;5010121;28;20030;-76
2022/11/22 08:20:08;;;;;;;13.90;1.50;;;5.60;99.90;;;;;;5020499;28;20021;-75
2022/11/22 08:22:38;;;;;;;12.10;1.95;;;5.60;99.90;;;;;;5026813;28;20022;-74
2022/11/22 08:25:11;;;;;;;8.02;1.13;;;5.60;99.90;;;;;;5018011;28;20029;-75
2022/11/22 08:27:41;;;;;;;11.65;1.58;;;5.70;99.90;;;;;;5017523;28;20048;-75
2022/11/22 08:30:11;;;;;;;10.10;1.52;;;5.70;99.90;;;;;;5020005;28;20708;-74
2022/11/22 08:32:40;;;;;;;7.53;1.10;;;5.70;99.90;;;;;;5018929;28;20049;-76
2022/11/22 08:35:07;;;;;;;11.05;1.20;;;5.70;99.90;;;;;;5020037;28;20025;-75
2022/11/22 08:37:33;;;;;;;12.75;1.05;;;5.80;99.90;;;;;;5019738;28;20043;-74
2022/11/22 08:39:59;;;;;;;7.63;1.35;;;5.80;99.90;;;;;;5017943;28;20025;-73
2022/11/22 08:42:25;;;;;;;13.95;1.70;;;5.70;99.90;;;;;;5015938;28;20488;-75
2022/11/22 08:44:50;;;;;;;8.27;0.88;;;5.80;99.90;;;;;;5005081;28;20368;-75
2022/11/22 08:47:16;;;;;;;6.97;1.30;;;5.80;99.90;;;;;;5022574;28;20044;-74
2022/11/22 08:49:44;;;;;;;14.05;1.80;;;5.80;99.90;;;;;;5030454;28;20030;-74
2022/11/22 08:52:10;;;;;;;9.82;1.42;;;5.90;99.90;;;;;;5022626;28;20383;-75
2022/11/22 08:54:36;;;;;;;7.28;1.00;;;5.90;99.90;;;;;;5022265;28;20029;-76
2022/11/22 08:57:01;;;;;;;12.90;1.45;;;5.90;99.90;;;;;;5030112;28;20091;-76
2022/11/22 08:59:27;;;;;;;14.98;1.42;;;6.00;99.90;;;;;;5027332;28;20025;-75
2022/11/22 09:01:52;;;;;;;8.32;0.80;;;6.00;99.90;;;;;;5027002;28;20695;-74
2022/11/22 09:04:18;;;;;;;6.28;0.95;;;6.10;99.90;;;;;;5025089;28;20112;-74
2022/11/22 09:06:44;;;;;;;8.68;0.88;;;6.10;99.90;;;;;;5021310;28;20483;-74
2022/11/22 09:09:09;;;;;;;7.80;1.08;;;6.20;99.90;;;;;;5026072;28;20025;-74
2022/11/22 09:11:37;;;;;;;12.25;1.30;;;6.20;99.90;;;;;;5044267;28;20101;-76
2022/11/22 09:14:03;;;;;;;5.68;0.85;;;6.30;99.90;;;;;;5030155;28;20056;-76
2022/11/22 09:16:29;;;;;;;6.75;1.00;;;6.30;99.90;;;;;;5031113;28;20068;-75
2022/11/22 09:18:54;;;;;;;10.27;1.20;;;6.30;99.90;;;;;;5029809;28;20029;-75
2022/11/22 09:21:21;;;;;;;8.75;1.30;;;6.30;99.90;;;;;;5030477;28;20025;-75
2022/11/22 09:23:48;;;;;;;4.93;0.90;;;6.30;99.90;;;;;;5030823;28;20395;-75
2022/11/22 09:26:19;;;;;;;9.85;1.08;;;6.30;99.90;;;;;;5013314;28;20069;-74
2022/11/22 09:28:46;;;;;;;7.60;1.63;;;6.30;99.90;;;;;;5028188;28;20029;-75
2022/11/22 09:31:15;;;;;;;9.35;0.90;;;6.40;99.90;;;;;;5011256;28;20026;-76
2022/11/22 09:33:44;;;;;;;10.88;1.13;;;6.40;99.90;;;;;;5015253;28;20041;-75
2022/11/22 09:36:21;;;;;;;14.75;1.45;;;6.50;99.90;;;;;;5027372;28;20090;-74
2022/11/22 09:38:47;;;;;;;5.97;0.80;;;6.50;99.90;;;;;;5023471;28;20394;-76
2022/11/22 09:41:38;;;;;;;7.03;0.98;;;6.60;99.90;;;;;;5028642;28;20403;-75
2022/11/22 09:44:34;;;;;;;6.93;1.20;;;6.60;99.90;;;;;;4996114;28;20121;-74
2022/11/22 09:47:00;;;;;;;13.55;1.00;;;6.60;99.90;;;;;;5020180;28;20056;-74
2022/11/22 09:49:25;;;;;;;9.75;1.25;;;6.60;99.90;;;;;;5023061;28;20026;-75
2022/11/22 09:51:56;;;;;;;12.40;1.15;;;6.70;99.90;;;;;;5027652;28;20026;-75
2022/11/22 09:54:48;;;;;;;8.57;1.23;;;6.80;99.90;;;;;;5030568;28;20471;-75
2022/11/22 09:57:30;;;;;;;8.75;1.50;;;6.90;99.90;;;;;;5016567;28;20041;-73
2022/11/22 10:00:26;;;;;;;5.63;1.50;;;6.90;99.90;;;;;;5034061;28;20050;-74
2022/11/22 10:03:15;;;;;;;11.65;1.02;;;6.90;99.90;;;;;;5017667;28;20276;-74
2022/11/22 10:06:05;;;;;;;5.75;1.13;;;6.90;99.90;;;;;;4989303;28;20493;-75
2022/11/22 10:08:45;;;;;;;10.50;1.13;;;6.90;99.90;;;;;;5032678;28;20026;-75
2022/11/22 10:11:23;;;;;;;9.40;0.93;;;6.90;99.90;;;;;;5035790;28;20025;-75
2022/11/22 10:13:55;;;;;;;5.32;0.93;;;7.00;99.90;;;;;;5040103;28;20029;-76
2022/11/22 10:16:23;;;;;;;7.50;1.35;;;7.10;99.90;;;;;;5014595;28;20026;-75
2022/11/22 10:19:01;;;;;;;7.68;1.27;;;7.10;99.90;;;;;;5021803;28;20029;-75
2022/11/22 10:21:27;;;;;;;9.40;1.52;;;7.20;99.90;;;;;;5036807;28;20029;-75
2022/11/22 10:23:52;;;;;;;7.07;1.00;;;7.20;99.90;;;;;;5036905;28;20450;-74
2022/11/22 10:26:24;;;;;;;7.03;1.10;;;7.30;99.90;;;;;;5028167;28;20103;-74
2022/11/22 10:28:59;;;;;;;7.25;0.85;;;7.30;99.90;;;;;;5033411;28;20689;-74
2022/11/22 10:31:49;;;;;;;6.30;1.10;;;7.30;99.90;;;;;;5039730;28;20061;-75
2022/11/22 10:34:38;;;;;;;9.05;0.95;;;7.30;99.90;;;;;;5022182;28;20026;-75
2022/11/22 10:37:19;;;;;;;6.55;1.30;;;7.40;99.90;;;;;;5020965;28;20087;-74
2022/11/22 10:40:04;;;;;;;9.50;0.98;;;7.40;99.90;;;;;;5021586;28;20026;-75
2022/11/22 10:43:13;;;;;;;5.35;1.10;;;7.40;99.90;;;;;;5032077;28;20036;-74
2022/11/22 10:46:07;;;;;;;5.47;0.90;;;7.40;99.90;;;;;;5035724;28;20040;-74
2022/11/22 10:49:03;;;;;;;3.35;0.63;;;7.40;99.90;;;;;;5032169;28;20037;-75
2022/11/22 10:51:41;;;;;;;4.75;0.57;;;7.40;99.90;;;;;;5019030;28;20506;-75
2022/11/22 10:54:25;;;;;;;4.30;0.63;;;7.50;99.90;;;;;;5037790;28;20052;-74
2022/11/22 10:57:07;;;;;;;4.72;0.90;;;7.40;99.90;;;;;;5033753;28;20049;-76
2022/11/22 10:59:55;;;;;;;6.18;0.60;;;7.50;99.90;;;;;;5015863;28;20055;-75
2022/11/22 11:02:39;;;;;;;4.70;0.50;;;7.50;99.90;;;;;;5017425;28;20034;-75
2022/11/22 11:05:10;;;;;;;4.95;0.50;;;7.50;99.90;;;;;;5018342;28;20029;-74
2022/11/22 11:07:40;;;;;;;4.70;0.60;;;7.50;99.90;;;;;;5018678;28;20120;-74
2022/11/22 11:10:18;;;;;;;7.15;0.70;;;7.50;99.90;;;;;;5017523;28;20133;-74
2022/11/22 11:12:52;;;;;;;3.42;0.50;;;7.60;99.90;;;;;;5035232;28;20025;-75
2022/11/22 11:15:27;;;;;;;8.68;1.02;;;7.60;99.90;;;;;;5019103;28;20033;-74
2022/11/22 11:17:59;;;;;;;2.78;0.50;;;7.60;99.90;;;;;;5019090;28;20049;-74
2022/11/22 11:20:27;;;;;;;4.78;0.70;;;7.60;99.90;;;;;;5016848;28;20037;-75
2022/11/22 11:22:53;;;;;;;3.25;0.60;;;7.50;99.90;;;;;;5014070;28;20057;-74
2022/11/22 11:25:42;;;;;;;5.43;0.70;;;7.60;99.90;;;;;;5011786;28;20588;-74
2022/11/22 11:28:17;;;;;;;4.32;0.50;;;7.60;99.90;;;;;;5028498;28;20049;-74
2022/11/22 11:30:48;;;;;;;1.77;0.50;;;7.60;99.90;;;;;;5029817;28;20017;-74
2022/11/22 11:33:19;;;;;;;7.65;1.15;;;7.70;99.90;;;;;;5009600;28;20045;-74
2022/11/22 11:35:46;;;;;;;3.30;0.70;;;7.80;99.90;;;;;;5008268;28;20480;-75
2022/11/22 11:38:29;;;;;;;2.95;0.60;;;7.80;99.90;;;;;;5008204;28;20049;-74
2022/11/22 11:40:54;;;;;;;3.15;0.50;;;7.90;99.90;;;;;;5015133;28;20049;-75
2022/11/22 11:43:22;;;;;;;3.78;0.60;;;8.00;99.90;;;;;;5013340;28;20034;-75
2022/11/22 11:45:48;;;;;;;2.85;0.70;;;8.00;99.90;;;;;;5015851;28;20034;-75
2022/11/22 11:48:40;;;;;;;6.07;0.50;;;8.20;99.90;;;;;;5015569;28;20026;-74
2022/11/22 11:51:20;;;;;;;1.55;0.40;;;8.20;99.90;;;;;;5011341;28;20029;-74
2022/11/22 11:53:55;;;;;;;1.38;0.40;;;8.20;99.90;;;;;;5009492;28;20037;-74
2022/11/22 11:56:38;;;;;;;4.03;0.47;;;8.20;99.90;;;;;;5013760;28;20108;-75
2022/11/22 11:59:15;;;;;;;1.67;0.30;;;8.20;99.90;;;;;;5013205;28;20026;-74
2022/11/22 12:02:12;;;;;;;0.95;0.25;;;8.20;99.90;;;;;;5027443;28;20034;-75
2022/11/22 12:04:56;;;;;;;2.30;0.40;;;8.20;99.90;;;;;;5017742;28;20128;-74
2022/11/22 12:07:24;;;;;;;2.83;0.35;;;8.20;99.90;;;;;;5007701;28;20046;-74
2022/11/22 12:09:52;;;;;;;3.03;0.40;;;8.10;99.90;;;;;;5013032;28;20077;-75
2022/11/22 12:12:44;;;;;;;2.75;0.30;;;8.10;99.90;;;;;;5010456;28;20034;-75
2022/11/22 12:15:14;;;;;;;1.60;0.30;;;8.10;99.90;;;;;;5009201;28;20034;-74
2022/11/22 12:18:05;;;;;;;1.35;0.20;;;8.10;99.90;;;;;;5007973;28;20040;-76
2022/11/22 12:21:01;;;;;;;1.98;0.20;;;8.10;99.90;;;;;;5011628;28;20391;-75
2022/11/22 12:23:49;;;;;;;2.60;0.20;;;8.00;99.90;;;;;;5006850;28;20080;-74
2022/11/22 12:26:15;;;;;;;1.15;0.20;;;8.10;99.90;;;;;;5007085;28;20074;-75
2022/11/22 12:28:41;;;;;;;2.83;0.40;;;8.10;99.90;;;;;;4999034;28;20427;-74
2022/11/22 12:31:25;;;;;;;2.42;0.20;;;8.10;99.90;;;;;;5013102;28;20021;-74
2022/11/22 12:34:04;;;;;;;0.45;0.20;;;8.00;99.90;;;;;;5032369;28;20032;-75
2022/11/22 12:36:49;;;;;;;1.85;0.30;;;8.00;99.90;;;;;;5030144;28;20087;-74
2022/11/22 12:39:24;;;;;;;2.03;0.20;;;8.00;99.90;;;;;;5031803;28;20045;-75
2022/11/22 12:42:01;;;;;;;1.58;0.20;;;8.00;99.90;;;;;;5029321;28;20033;-75
2022/11/22 12:44:39;;;;;;;1.13;0.20;;;8.00;99.90;;;;;;5029965;28;20029;-75
2022/11/22 12:47:15;;;;;;;1.77;0.20;;;8.00;99.90;;;;;;5011966;28;20554;-74
2022/11/22 12:49:48;;;;;;;0.60;0.20;;;8.00;99.90;;;;;;5031913;28;20064;-75
2022/11/22 12:52:36;;;;;;;0.70;0.10;;;8.00;99.90;;;;;;5031117;28;20113;-75
2022/11/22 12:55:03;;;;;;;1.05;0.10;;;8.10;99.90;;;;;;5031457;28;20021;-75
2022/11/22 12:57:47;;;;;;;0.80;0.20;;;8.10;99.90;;;;;;5011160;28;20029;-75
2022/11/22 13:00:21;;;;;;;2.22;0.20;;;8.10;99.90;;;;;;5028712;28;20036;-75
2022/11/22 13:03:02;;;;;;;1.13;0.20;;;8.20;99.90;;;;;;5028949;28;20026;-74
2022/11/22 13:05:59;;;;;;;1.38;0.20;;;8.20;99.90;;;;;;5025724;28;20770;-74
2022/11/22 13:08:45;;;;;;;0.85;0.20;;;8.20;99.90;;;;;;5026791;28;20136;-74
2022/11/22 13:11:16;;;;;;;1.70;0.15;;;8.20;99.90;;;;;;5027327;28;20029;-74
2022/11/22 13:13:46;;;;;;;2.38;0.20;;;8.30;99.90;;;;;;5032068;28;20029;-75
2022/11/22 13:16:16;;;;;;;0.35;0.10;;;8.30;99.90;;;;;;5028712;28;20390;-74
2022/11/22 13:18:55;;;;;;;0.73;0.10;;;8.40;99.90;;;;;;5031049;28;20029;-75
2022/11/22 13:21:55;;;;;;;0.90;0.10;;;8.30;99.90;;;;;;5030345;28;20104;-75